sensor_id;sensor_type;location;lat;lon;timestamp;pressure;altitude;pressure_sealevel;temperature;humidity
20455;BME280;10386;54.314;10.022;2023-10-19T00:02:26;100810.44;;;9.03;100.00
20455;BME280;10386;54.314;10.022;2023-10-19T00:05:11;100809.38;;;9.06;100.00
20455;BME280;10386;54.314;10.022;2023-10-19T00:08:00;100802.72;;;8.97;100.00
20455;BME280;10386;54.314;10.022;2023-10-19T00:10:54;100795.88;;;8.92;100.00
20455;BME280;10386;54.314;10.022;2023-10-19T00:13:55;100788.50;;;8.94;100.00
20455;BME280;10386;54.314;10.022;2023-10-19T00:16:46;100786.50;;;8.97;100.00
20455;BME280;10386;54.314;10.022;2023-10-19T00:19:51;100779.41;;;8.95;100.00
20455;BME280;10386;54.314;10.022;2023-10-19T00:22:53;100769.34;;;8.97;100.00
20455;BME280;10386;54.314;10.022;2023-10-19T00:25:20;100766.84;;;8.94;100.00
20455;BME280;10386;54.314;10.022;2023-10-19T00:27:49;100757.47;;;8.99;100.00
20455;BME280;10386;54.314;10.022;2023-10-19T00:30:17;100744.44;;;8.92;100.00
20455;BME280;10386;54.314;10.022;2023-10-19T00:32:50;100756.72;;;8.97;100.00
20455;BME280;10386;54.314;10.022;2023-10-19T00:35:36;100755.53;;;8.87;100.00
20455;BME280;10386;54.314;10.022;2023-10-19T00:38:27;100748.59;;;8.97;100.00
20455;BME280;10386;54.314;10.022;2023-10-19T00:41:16;100723.13;;;9.00;100.00
20455;BME280;10386;54.314;10.022;2023-10-19T00:44:23;100713.19;;;9.00;100.00
20455;BME280;10386;54.314;10.022;2023-10-19T00:47:20;100712.41;;;8.98;100.00
20455;BME280;10386;54.314;10.022;2023-10-19T00:50:10;100723.91;;;9.02;100.00
20455;BME280;10386;54.314;10.022;2023-10-19T00:53:03;100714.81;;;9.03;100.00
20455;BME280;10386;54.314;10.022;2023-10-19T00:55:53;100715.00;;;9.00;100.00
20455;BME280;10386;54.314;10.022;2023-10-19T00:58:38;100712.28;;;9.00;100.00
20455;BME280;10386;54.314;10.022;2023-10-19T01:01:28;100707.00;;;8.98;100.00
20455;BME280;10386;54.314;10.022;2023-10-19T01:03:55;100700.13;;;8.93;100.00
20455;BME280;10386;54.314;10.022;2023-10-19T01:06:41;100688.81;;;9.00;100.00
20455;BME280;10386;54.314;10.022;2023-10-19T01:09:43;100685.78;;;9.05;100.00
20455;BME280;10386;54.314;10.022;2023-10-19T01:12:29;100680.84;;;9.11;100.00
20455;BME280;10386;54.314;10.022;2023-10-19T01:15:17;100687.72;;;9.03;100.00
20455;BME280;10386;54.314;10.022;2023-10-19T01:18:03;100680.56;;;9.02;100.00
20455;BME280;10386;54.314;10.022;2023-10-19T01:20:50;100688.97;;;9.11;100.00
20455;BME280;10386;54.314;10.022;2023-10-19T01:23:40;100673.88;;;9.07;100.00
20455;BME280;10386;54.314;10.022;2023-10-19T01:26:26;100675.41;;;9.11;100.00
20455;BME280;10386;54.314;10.022;2023-10-19T01:29:11;100679.09;;;9.10;100.00
20455;BME280;10386;54.314;10.022;2023-10-19T01:32:12;100673.13;;;9.05;100.00
20455;BME280;10386;54.314;10.022;2023-10-19T01:35:00;100682.44;;;9.14;100.00
20455;BME280;10386;54.314;10.022;2023-10-19T01:37:45;100663.69;;;9.11;100.00
20455;BME280;10386;54.314;10.022;2023-10-19T01:40:31;100670.28;;;9.07;100.00
20455;BME280;10386;54.314;10.022;2023-10-19T01:43:19;100670.84;;;9.12;100.00
20455;BME280;10386;54.314;10.022;2023-10-19T01:46:07;100659.06;;;9.13;100.00
20455;BME280;10386;54.314;10.022;2023-10-19T01:49:07;100649.53;;;9.07;100.00
20455;BME280;10386;54.314;10.022;2023-10-19T01:51:54;100640.31;;;9.10;100.00
20455;BME280;10386;54.314;10.022;2023-10-19T01:54:39;100638.16;;;9.15;100.00
20455;BME280;10386;54.314;10.022;2023-10-19T01:57:25;100631.75;;;9.16;100.00
20455;BME280;10386;54.314;10.022;2023-10-19T02:00:11;100622.31;;;9.09;100.00
20455;BME280;10386;54.314;10.022;2023-10-19T02:03:07;100603.50;;;9.20;100.00
20455;BME280;10386;54.314;10.022;2023-10-19T02:05:59;100600.22;;;9.15;100.00
20455;BME280;10386;54.314;10.022;2023-10-19T02:08:49;100596.97;;;9.10;100.00
20455;BME280;10386;54.314;10.022;2023-10-19T02:11:41;100594.13;;;8.99;100.00
20455;BME280;10386;54.314;10.022;2023-10-19T02:14:27;100588.75;;;9.11;100.00
20455;BME280;10386;54.314;10.022;2023-10-19T02:17:17;100569.38;;;9.17;100.00
20455;BME280;10386;54.314;10.022;2023-10-19T02:20:04;100567.66;;;9.16;100.00
20455;BME280;10386;54.314;10.022;2023-10-19T02:23:14;100560.38;;;9.17;100.00
20455;BME280;10386;54.314;10.022;2023-10-19T02:26:00;100558.75;;;9.14;100.00
20455;BME280;10386;54.314;10.022;2023-10-19T02:28:29;100556.91;;;9.15;100.00
20455;BME280;10386;54.314;10.022;2023-10-19T02:30:58;100559.41;;;9.18;100.00
20455;BME280;10386;54.314;10.022;2023-10-19T02:33:46;100562.13;;;9.30;100.00
20455;BME280;10386;54.314;10.022;2023-10-19T02:36:31;100554.22;;;9.27;100.00
20455;BME280;10386;54.314;10.022;2023-10-19T02:39:17;100549.44;;;9.31;100.00
20455;BME280;10386;54.314;10.022;2023-10-19T02:42:03;100551.16;;;9.32;100.00
20455;BME280;10386;54.314;10.022;2023-10-19T02:44:49;100548.59;;;9.30;100.00
20455;BME280;10386;54.314;10.022;2023-10-19T02:47:36;100545.34;;;9.25;100.00
20455;BME280;10386;54.314;10.022;2023-10-19T02:50:22;100540.09;;;9.35;100.00
20455;BME280;10386;54.314;10.022;2023-10-19T02:53:09;100543.69;;;9.35;100.00
20455;BME280;10386;54.314;10.022;2023-10-19T02:55:58;100530.25;;;9.34;100.00
20455;BME280;10386;54.314;10.022;2023-10-19T02:58:46;100525.50;;;9.37;100.00
20455;BME280;10386;54.314;10.022;2023-10-19T03:01:37;100529.63;;;9.43;100.00
20455;BME280;10386;54.314;10.022;2023-10-19T03:04:25;100526.56;;;9.35;100.00
20455;BME280;10386;54.314;10.022;2023-10-19T03:07:11;100520.31;;;9.34;100.00
20455;BME280;10386;54.314;10.022;2023-10-19T03:09:42;100524.22;;;9.43;100.00
20455;BME280;10386;54.314;10.022;2023-10-19T03:12:17;100531.25;;;9.45;100.00
20455;BME280;10386;54.314;10.022;2023-10-19T03:14:45;100522.03;;;9.35;100.00
20455;BME280;10386;54.314;10.022;2023-10-19T03:17:15;100532.13;;;9.46;100.00
20455;BME280;10386;54.314;10.022;2023-10-19T03:19:43;100532.56;;;9.40;100.00
20455;BME280;10386;54.314;10.022;2023-10-19T03:22:10;100529.84;;;9.40;100.00
20455;BME280;10386;54.314;10.022;2023-10-19T03:24:38;100527.13;;;9.40;100.00
20455;BME280;10386;54.314;10.022;2023-10-19T03:27:13;100525.41;;;9.39;100.00
20455;BME280;10386;54.314;10.022;2023-10-19T03:29:46;100522.34;;;9.43;100.00
20455;BME280;10386;54.314;10.022;2023-10-19T03:32:15;100515.09;;;9.44;100.00
20455;BME280;10386;54.314;10.022;2023-10-19T03:35:04;100513.56;;;9.52;100.00
20455;BME280;10386;54.314;10.022;2023-10-19T03:37:50;100514.66;;;9.50;100.00
20455;BME280;10386;54.314;10.022;2023-10-19T03:40:37;100510.97;;;9.38;100.00
20455;BME280;10386;54.314;10.022;2023-10-19T03:43:23;100513.03;;;9.47;100.00
20455;BME280;10386;54.314;10.022;2023-10-19T03:46:11;100508.16;;;9.40;100.00
20455;BME280;10386;54.314;10.022;2023-10-19T03:49:08;100502.53;;;9.43;100.00
20455;BME280;10386;54.314;10.022;2023-10-19T03:51:57;100498.94;;;9.55;100.00
20455;BME280;10386;54.314;10.022;2023-10-19T03:55:07;100492.53;;;9.56;100.00
20455;BME280;10386;54.314;10.022;2023-10-19T03:57:56;100497.06;;;9.55;100.00
20455;BME280;10386;54.314;10.022;2023-10-19T04:00:42;100501.88;;;9.52;100.00
20455;BME280;10386;54.314;10.022;2023-10-19T04:03:30;100499.03;;;9.53;100.00
20455;BME280;10386;54.314;10.022;2023-10-19T04:06:16;100504.44;;;9.53;100.00
20455;BME280;10386;54.314;10.022;2023-10-19T04:09:01;100503.91;;;9.60;100.00
20455;BME280;10386;54.314;10.022;2023-10-19T04:11:49;100498.28;;;9.63;100.00
20455;BME280;10386;54.314;10.022;2023-10-19T04:14:36;100495.25;;;9.56;100.00
20455;BME280;10386;54.314;10.022;2023-10-19T04:17:23;100498.72;;;9.57;100.00
20455;BME280;10386;54.314;10.022;2023-10-19T04:19:51;100490.38;;;9.60;100.00
20455;BME280;10386;54.314;10.022;2023-10-19T04:22:19;100488.28;;;9.64;100.00
20455;BME280;10386;54.314;10.022;2023-10-19T04:24:52;100493.28;;;9.57;100.00
20455;BME280;10386;54.314;10.022;2023-10-19T04:27:19;100486.00;;;9.58;100.00
20455;BME280;10386;54.314;10.022;2023-10-19T04:29:50;100481.47;;;9.58;100.00
20455;BME280;10386;54.314;10.022;2023-10-19T04:32:16;100481.78;;;9.66;100.00
20455;BME280;10386;54.314;10.022;2023-10-19T04:35:14;100464.78;;;9.64;100.00
20455;BME280;10386;54.314;10.022;2023-10-19T04:38:09;100458.25;;;9.67;100.00
20455;BME280;10386;54.314;10.022;2023-10-19T04:40:54;100461.69;;;9.69;100.00
20455;BME280;10386;54.314;10.022;2023-10-19T04:43:45;100462.69;;;9.68;100.00
20455;BME280;10386;54.314;10.022;2023-10-19T04:46:36;100455.34;;;9.57;100.00
20455;BME280;10386;54.314;10.022;2023-10-19T04:49:22;100445.03;;;9.62;100.00
20455;BME280;10386;54.314;10.022;2023-10-19T04:52:07;100445.03;;;9.62;100.00
20455;BME280;10386;54.314;10.022;2023-10-19T04:54:53;100447.84;;;9.61;100.00
20455;BME280;10386;54.314;10.022;2023-10-19T04:57:39;100434.75;;;9.55;100.00
20455;BME280;10386;54.314;10.022;2023-10-19T05:00:25;100434.19;;;9.62;100.00
20455;BME280;10386;54.314;10.022;2023-10-19T05:03:13;100414.03;;;9.66;100.00
20455;BME280;10386;54.314;10.022;2023-10-19T05:06:04;100419.69;;;9.63;100.00
20455;BME280;10386;54.314;10.022;2023-10-19T05:08:50;100402.88;;;9.58;100.00
20455;BME280;10386;54.314;10.022;2023-10-19T05:11:19;100404.25;;;9.64;100.00
20455;BME280;10386;54.314;10.022;2023-10-19T05:13:47;100408.84;;;9.63;100.00
20455;BME280;10386;54.314;10.022;2023-10-19T05:16:15;100399.72;;;9.64;100.00
20455;BME280;10386;54.314;10.022;2023-10-19T05:18:42;100410.50;;;9.77;100.00
20455;BME280;10386;54.314;10.022;2023-10-19T05:21:11;100399.50;;;9.67;100.00
20455;BME280;10386;54.314;10.022;2023-10-19T05:23:40;100394.81;;;9.69;100.00
20455;BME280;10386;54.314;10.022;2023-10-19T05:26:11;100396.19;;;9.75;100.00
20455;BME280;10386;54.314;10.022;2023-10-19T05:28:40;100393.19;;;9.67;100.00
20455;BME280;10386;54.314;10.022;2023-10-19T05:31:10;100409.81;;;9.62;100.00
20455;BME280;10386;54.314;10.022;2023-10-19T05:33:40;100403.50;;;9.62;100.00
20455;BME280;10386;54.314;10.022;2023-10-19T05:36:25;100402.81;;;9.71;100.00
20455;BME280;10386;54.314;10.022;2023-10-19T05:39:11;100392.34;;;9.66;100.00
20455;BME280;10386;54.314;10.022;2023-10-19T05:42:00;100396.03;;;9.65;100.00
20455;BME280;10386;54.314;10.022;2023-10-19T05:44:51;100380.84;;;9.63;100.00
20455;BME280;10386;54.314;10.022;2023-10-19T05:47:39;100384.97;;;9.68;100.00
20455;BME280;10386;54.314;10.022;2023-10-19T05:50:26;100375.44;;;9.63;100.00
20455;BME280;10386;54.314;10.022;2023-10-19T05:53:16;100384.22;;;9.66;100.00
20455;BME280;10386;54.314;10.022;2023-10-19T05:56:11;100362.41;;;9.68;100.00
20455;BME280;10386;54.314;10.022;2023-10-19T05:58:56;100389.63;;;9.66;100.00
20455;BME280;10386;54.314;10.022;2023-10-19T06:01:43;100369.56;;;9.69;100.00
20455;BME280;10386;54.314;10.022;2023-10-19T06:04:32;100365.84;;;9.70;100.00
20455;BME280;10386;54.314;10.022;2023-10-19T06:07:18;100376.25;;;9.76;100.00
20455;BME280;10386;54.314;10.022;2023-10-19T06:10:04;100381.28;;;9.69;100.00
20455;BME280;10386;54.314;10.022;2023-10-19T06:12:36;100388.00;;;9.64;100.00
20455;BME280;10386;54.314;10.022;2023-10-19T06:15:11;100377.69;;;9.69;100.00
20455;BME280;10386;54.314;10.022;2023-10-19T06:17:40;100383.00;;;9.70;100.00
20455;BME280;10386;54.314;10.022;2023-10-19T06:20:12;100381.50;;;9.66;100.00
20455;BME280;10386;54.314;10.022;2023-10-19T06:22:57;100367.81;;;9.68;100.00
20455;BME280;10386;54.314;10.022;2023-10-19T06:25:33;100363.38;;;9.67;100.00
20455;BME280;10386;54.314;10.022;2023-10-19T06:28:05;100375.09;;;9.67;100.00
20455;BME280;10386;54.314;10.022;2023-10-19T06:30:34;100366.75;;;9.70;100.00
20455;BME280;10386;54.314;10.022;2023-10-19T06:33:01;100381.50;;;9.66;100.00
20455;BME280;10386;54.314;10.022;2023-10-19T06:35:50;100393.94;;;9.69;100.00
20455;BME280;10386;54.314;10.022;2023-10-19T06:38:37;100385.72;;;9.70;100.00
20455;BME280;10386;54.314;10.022;2023-10-19T06:41:26;100384.09;;;9.68;100.00
20455;BME280;10386;54.314;10.022;2023-10-19T06:44:13;100386.47;;;9.72;100.00
20455;BME280;10386;54.314;10.022;2023-10-19T06:47:01;100392.13;;;9.69;100.00
20455;BME280;10386;54.314;10.022;2023-10-19T06:49:46;100402.06;;;9.69;100.00
20455;BME280;10386;54.314;10.022;2023-10-19T06:52:35;100395.56;;;9.71;100.00
20455;BME280;10386;54.314;10.022;2023-10-19T06:55:22;100408.16;;;9.72;100.00
20455;BME280;10386;54.314;10.022;2023-10-19T06:58:13;100411.47;;;9.76;100.00
20455;BME280;10386;54.314;10.022;2023-10-19T07:01:00;100423.44;;;9.73;100.00
20455;BME280;10386;54.314;10.022;2023-10-19T07:03:50;100418.53;;;9.78;100.00
20455;BME280;10386;54.314;10.022;2023-10-19T07:06:39;100409.75;;;9.75;100.00
20455;BME280;10386;54.314;10.022;2023-10-19T07:09:26;100410.72;;;9.74;100.00
20455;BME280;10386;54.314;10.022;2023-10-19T07:12:12;100416.91;;;9.76;100.00
20455;BME280;10386;54.314;10.022;2023-10-19T07:14:58;100425.16;;;9.74;100.00
20455;BME280;10386;54.314;10.022;2023-10-19T07:17:48;100414.75;;;9.81;100.00
20455;BME280;10386;54.314;10.022;2023-10-19T07:20:35;100420.47;;;9.89;100.00
20455;BME280;10386;54.314;10.022;2023-10-19T07:23:29;100420.91;;;9.83;100.00
20455;BME280;10386;54.314;10.022;2023-10-19T07:26:15;100416.06;;;9.75;100.00
20455;BME280;10386;54.314;10.022;2023-10-19T07:28:42;100407.59;;;9.80;100.00
20455;BME280;10386;54.314;10.022;2023-10-19T07:31:12;100425.25;;;9.73;100.00
20455;BME280;10386;54.314;10.022;2023-10-19T07:33:42;100429.38;;;9.78;100.00
20455;BME280;10386;54.314;10.022;2023-10-19T07:36:13;100423.25;;;9.87;100.00
20455;BME280;10386;54.314;10.022;2023-10-19T07:38:46;100434.00;;;9.89;100.00
20455;BME280;10386;54.314;10.022;2023-10-19T07:41:15;100431.41;;;9.87;100.00
20455;BME280;10386;54.314;10.022;2023-10-19T07:43:43;100428.47;;;9.90;100.00
20455;BME280;10386;54.314;10.022;2023-10-19T07:46:11;100441.03;;;9.91;100.00
20455;BME280;10386;54.314;10.022;2023-10-19T07:48:39;100434.13;;;9.87;100.00
20455;BME280;10386;54.314;10.022;2023-10-19T07:51:08;100423.91;;;9.91;100.00
20455;BME280;10386;54.314;10.022;2023-10-19T07:53:38;100435.16;;;9.97;100.00
20455;BME280;10386;54.314;10.022;2023-10-19T07:56:05;100433.88;;;10.03;100.00
20455;BME280;10386;54.314;10.022;2023-10-19T07:58:34;100430.09;;;9.93;100.00
20455;BME280;10386;54.314;10.022;2023-10-19T08:01:02;100434.75;;;9.91;100.00
20455;BME280;10386;54.314;10.022;2023-10-19T08:03:31;100429.81;;;9.85;100.00
20455;BME280;10386;54.314;10.022;2023-10-19T08:06:02;100420.97;;;9.94;100.00
20455;BME280;10386;54.314;10.022;2023-10-19T08:08:34;100419.47;;;9.90;100.00
20455;BME280;10386;54.314;10.022;2023-10-19T08:11:04;100413.69;;;9.94;100.00
20455;BME280;10386;54.314;10.022;2023-10-19T08:13:33;100430.72;;;9.96;100.00
20455;BME280;10386;54.314;10.022;2023-10-19T08:16:00;100437.94;;;10.08;100.00
20455;BME280;10386;54.314;10.022;2023-10-19T08:18:27;100438.41;;;10.02;100.00
20455;BME280;10386;54.314;10.022;2023-10-19T08:20:58;100457.69;;;10.10;100.00
20455;BME280;10386;54.314;10.022;2023-10-19T08:23:28;100444.72;;;10.03;100.00
20455;BME280;10386;54.314;10.022;2023-10-19T08:25:55;100443.84;;;10.02;100.00
20455;BME280;10386;54.314;10.022;2023-10-19T08:28:24;100448.94;;;10.07;100.00
20455;BME280;10386;54.314;10.022;2023-10-19T08:30:52;100432.94;;;10.15;100.00
20455;BME280;10386;54.314;10.022;2023-10-19T08:33:28;100439.69;;;10.09;100.00
20455;BME280;10386;54.314;10.022;2023-10-19T08:35:57;100432.56;;;10.19;100.00
20455;BME280;10386;54.314;10.022;2023-10-19T08:38:27;100429.13;;;10.17;100.00
20455;BME280;10386;54.314;10.022;2023-10-19T08:40:56;100424.69;;;10.16;100.00
20455;BME280;10386;54.314;10.022;2023-10-19T08:43:26;100421.34;;;10.13;100.00
20455;BME280;10386;54.314;10.022;2023-10-19T08:46:02;100423.19;;;10.12;100.00
20455;BME280;10386;54.314;10.022;2023-10-19T08:48:33;100434.16;;;9.98;100.00
20455;BME280;10386;54.314;10.022;2023-10-19T08:51:09;100438.19;;;10.05;100.00
20455;BME280;10386;54.314;10.022;2023-10-19T08:53:38;100432.44;;;9.97;100.00
20455;BME280;10386;54.314;10.022;2023-10-19T08:56:11;100427.09;;;10.08;100.00
20455;BME280;10386;54.314;10.022;2023-10-19T08:58:40;100426.34;;;10.06;100.00
20455;BME280;10386;54.314;10.022;2023-10-19T09:01:07;100433.41;;;9.96;100.00
20455;BME280;10386;54.314;10.022;2023-10-19T09:03:37;100432.34;;;9.99;100.00
20455;BME280;10386;54.314;10.022;2023-10-19T09:06:06;100438.47;;;9.90;100.00
20455;BME280;10386;54.314;10.022;2023-10-19T09:08:33;100428.69;;;9.87;100.00
20455;BME280;10386;54.314;10.022;2023-10-19T09:11:10;100430.88;;;9.82;100.00
20455;BME280;10386;54.314;10.022;2023-10-19T09:13:46;100429.16;;;9.81;100.00
20455;BME280;10386;54.314;10.022;2023-10-19T09:16:18;100431.00;;;9.81;100.00
20455;BME280;10386;54.314;10.022;2023-10-19T09:18:49;100425.16;;;9.74;100.00
20455;BME280;10386;54.314;10.022;2023-10-19T09:21:20;100420.19;;;9.68;100.00
20455;BME280;10386;54.314;10.022;2023-10-19T09:23:57;100424.97;;;9.65;100.00
20455;BME280;10386;54.314;10.022;2023-10-19T09:26:25;100417.50;;;9.68;100.00
20455;BME280;10386;54.314;10.022;2023-10-19T09:28:53;100415.75;;;9.67;100.00
20455;BME280;10386;54.314;10.022;2023-10-19T09:31:21;100408.84;;;9.63;100.00
20455;BME280;10386;54.314;10.022;2023-10-19T09:33:51;100423.91;;;9.55;100.00
20455;BME280;10386;54.314;10.022;2023-10-19T09:36:21;100422.84;;;9.57;100.00
20455;BME280;10386;54.314;10.022;2023-10-19T09:38:53;100412.53;;;9.62;100.00
20455;BME280;10386;54.314;10.022;2023-10-19T09:41:21;100418.47;;;9.67;100.00
20455;BME280;10386;54.314;10.022;2023-10-19T09:43:50;100415.75;;;9.67;100.00
20455;BME280;10386;54.314;10.022;2023-10-19T09:46:22;100413.56;;;9.72;100.00
20455;BME280;10386;54.314;10.022;2023-10-19T09:48:50;100409.59;;;9.65;100.00
20455;BME280;10386;54.314;10.022;2023-10-19T09:51:19;100421.47;;;9.75;100.00
20455;BME280;10386;54.314;10.022;2023-10-19T09:53:51;100435.34;;;9.71;100.00
20455;BME280;10386;54.314;10.022;2023-10-19T09:56:26;100433.06;;;9.77;100.00
20455;BME280;10386;54.314;10.022;2023-10-19T09:59:00;100442.63;;;9.70;100.00
20455;BME280;10386;54.314;10.022;2023-10-19T10:04:46;100449.25;;;9.66;100.00
20455;BME280;10386;54.314;10.022;2023-10-19T10:07:17;100459.44;;;9.63;100.00
20455;BME280;10386;54.314;10.022;2023-10-19T10:10:05;100443.72;;;9.68;100.00
20455;BME280;10386;54.314;10.022;2023-10-19T10:12:33;100439.47;;;9.76;100.00
20455;BME280;10386;54.314;10.022;2023-10-19T10:15:04;100437.16;;;9.59;100.00
20455;BME280;10386;54.314;10.022;2023-10-19T10:17:36;100432.88;;;9.68;100.00
20455;BME280;10386;54.314;10.022;2023-10-19T10:33:45;100429.38;;;9.78;100.00
20455;BME280;10386;54.314;10.022;2023-10-19T10:36:13;100422.88;;;9.81;100.00
20455;BME280;10386;54.314;10.022;2023-10-19T10:38:40;100420.25;;;9.79;100.00
20455;BME280;10386;54.314;10.022;2023-10-19T10:41:08;100422.44;;;9.74;100.00
20455;BME280;10386;54.314;10.022;2023-10-19T10:43:54;100431.34;;;9.76;100.00
20455;BME280;10386;54.314;10.022;2023-10-19T10:46:23;100434.47;;;9.83;100.00
20455;BME280;10386;54.314;10.022;2023-10-19T10:48:51;100418.25;;;9.70;100.00
20455;BME280;10386;54.314;10.022;2023-10-19T10:51:27;100413.13;;;9.78;100.00
20455;BME280;10386;54.314;10.022;2023-10-19T10:53:56;100398.38;;;9.70;100.00
20455;BME280;10386;54.314;10.022;2023-10-19T10:56:24;100396.13;;;9.64;100.00
20455;BME280;10386;54.314;10.022;2023-10-19T10:58:51;100386.47;;;9.72;100.00
20455;BME280;10386;54.314;10.022;2023-10-19T11:01:28;100383.94;;;9.58;100.00
20455;BME280;10386;54.314;10.022;2023-10-19T11:04:09;100376.09;;;9.66;100.00
20455;BME280;10386;54.314;10.022;2023-10-19T11:06:52;100365.47;;;9.63;100.00
20455;BME280;10386;54.314;10.022;2023-10-19T11:09:21;100375.03;;;9.57;100.00
20455;BME280;10386;54.314;10.022;2023-10-19T11:11:48;100365.25;;;9.66;100.00
20455;BME280;10386;54.314;10.022;2023-10-19T11:14:21;100349.50;;;9.71;100.00
20455;BME280;10386;54.314;10.022;2023-10-19T11:16:53;100346.38;;;9.65;100.00
20455;BME280;10386;54.314;10.022;2023-10-19T11:19:20;100329.25;;;9.64;100.00
20455;BME280;10386;54.314;10.022;2023-10-19T11:21:54;100321.41;;;9.49;100.00
20455;BME280;10386;54.314;10.022;2023-10-19T11:24:26;100311.50;;;9.60;100.00
20455;BME280;10386;54.314;10.022;2023-10-19T11:26:57;100300.19;;;9.66;100.00
20455;BME280;10386;54.314;10.022;2023-10-19T11:29:23;100298.94;;;9.59;100.00
20455;BME280;10386;54.314;10.022;2023-10-19T11:32:01;100293.97;;;9.54;100.00
20455;BME280;10386;54.314;10.022;2023-10-19T11:34:29;100278.97;;;9.60;100.00
20455;BME280;10386;54.314;10.022;2023-10-19T11:36:57;100287.63;;;9.65;100.00
20455;BME280;10386;54.314;10.022;2023-10-19T11:39:26;100271.38;;;9.65;100.00
20455;BME280;10386;54.314;10.022;2023-10-19T11:41:53;100270.84;;;9.60;100.00
20455;BME280;10386;54.314;10.022;2023-10-19T11:44:20;100264.84;;;9.68;100.00
20455;BME280;10386;54.314;10.022;2023-10-19T11:46:48;100251.41;;;9.66;100.00
20455;BME280;10386;54.314;10.022;2023-10-19T11:49:15;100240.41;;;9.57;100.00
20455;BME280;10386;54.314;10.022;2023-10-19T11:51:42;100235.63;;;9.60;100.00
20455;BME280;10386;54.314;10.022;2023-10-19T11:54:10;100213.72;;;9.63;100.00
20455;BME280;10386;54.314;10.022;2023-10-19T11:56:37;100217.94;;;9.78;100.00
20455;BME280;10386;54.314;10.022;2023-10-19T11:59:03;100207.69;;;9.71;100.00
20455;BME280;10386;54.314;10.022;2023-10-19T12:01:30;100194.28;;;9.80;100.00
20455;BME280;10386;54.314;10.022;2023-10-19T12:03:57;100203.41;;;9.79;100.00
20455;BME280;10386;54.314;10.022;2023-10-19T12:06:24;100193.66;;;9.77;100.00
20455;BME280;10386;54.314;10.022;2023-10-19T12:08:51;100181.31;;;9.73;100.00
20455;BME280;10386;54.314;10.022;2023-10-19T12:11:18;100182.59;;;9.80;100.00
20455;BME280;10386;54.314;10.022;2023-10-19T12:13:46;100189.63;;;9.82;100.00
20455;BME280;10386;54.314;10.022;2023-10-19T12:16:15;100185.81;;;9.85;100.00
20455;BME280;10386;54.314;10.022;2023-10-19T12:18:44;100187.53;;;9.86;100.00
20455;BME280;10386;54.314;10.022;2023-10-19T12:21:11;100182.59;;;9.80;100.00
20455;BME280;10386;54.314;10.022;2023-10-19T12:23:42;100180.88;;;9.79;100.00
20455;BME280;10386;54.314;10.022;2023-10-19T12:26:17;100183.78;;;9.76;100.00
20455;BME280;10386;54.314;10.022;2023-10-19T12:28:44;100178.34;;;9.65;100.00
20455;BME280;10386;54.314;10.022;2023-10-19T12:31:15;100177.50;;;9.64;100.00
20455;BME280;10386;54.314;10.022;2023-10-19T12:33:45;100171.34;;;9.62;100.00
20455;BME280;10386;54.314;10.022;2023-10-19T12:36:12;100173.31;;;9.60;100.00
20455;BME280;10386;54.314;10.022;2023-10-19T12:39:05;100149.41;;;9.65;100.00
20455;BME280;10386;54.314;10.022;2023-10-19T12:41:35;100140.78;;;9.60;100.00
20455;BME280;10386;54.314;10.022;2023-10-19T12:44:02;100143.50;;;9.60;100.00
20455;BME280;10386;54.314;10.022;2023-10-19T12:46:34;100140.31;;;9.66;100.00
20455;BME280;10386;54.314;10.022;2023-10-19T12:49:06;100127.00;;;9.63;100.00
20455;BME280;10386;54.314;10.022;2023-10-19T12:51:40;100126.34;;;9.60;100.00
20455;BME280;10386;54.314;10.022;2023-10-19T12:54:08;100127.97;;;9.52;100.00
20455;BME280;10386;54.314;10.022;2023-10-19T12:56:38;100127.81;;;9.53;100.00
20455;BME280;10386;54.314;10.022;2023-10-19T12:59:06;100131.41;;;9.54;100.00
20455;BME280;10386;54.314;10.022;2023-10-19T13:01:34;100105.16;;;9.54;100.00
20455;BME280;10386;54.314;10.022;2023-10-19T13:04:02;100113.66;;;9.50;100.00
20455;BME280;10386;54.314;10.022;2023-10-19T13:06:43;100100.63;;;9.55;100.00
20455;BME280;10386;54.314;10.022;2023-10-19T13:09:10;100094.81;;;9.59;100.00
20455;BME280;10386;54.314;10.022;2023-10-19T13:11:38;100091.84;;;9.51;100.00
20455;BME280;10386;54.314;10.022;2023-10-19T13:14:10;100092.50;;;9.55;100.00
20455;BME280;10386;54.314;10.022;2023-10-19T13:16:38;100091.28;;;9.58;100.00
20455;BME280;10386;54.314;10.022;2023-10-19T13:19:06;100088.81;;;9.56;100.00
20455;BME280;10386;54.314;10.022;2023-10-19T13:21:40;100093.25;;;9.67;100.00
20455;BME280;10386;54.314;10.022;2023-10-19T13:24:09;100085.13;;;9.67;100.00
20455;BME280;10386;54.314;10.022;2023-10-19T13:26:36;100083.25;;;9.68;100.00
20455;BME280;10386;54.314;10.022;2023-10-19T13:29:05;100072.06;;;9.72;100.00
20455;BME280;10386;54.314;10.022;2023-10-19T13:31:31;100060.00;;;9.76;100.00
20455;BME280;10386;54.314;10.022;2023-10-19T13:33:59;100055.31;;;9.78;100.00
20455;BME280;10386;54.314;10.022;2023-10-19T13:36:26;100053.59;;;9.77;100.00
20455;BME280;10386;54.314;10.022;2023-10-19T13:38:53;100062.59;;;9.89;100.00
20455;BME280;10386;54.314;10.022;2023-10-19T13:41:21;100051.13;;;9.74;100.00
20455;BME280;10386;54.314;10.022;2023-10-19T13:43:48;100061.22;;;9.83;100.00
20455;BME280;10386;54.314;10.022;2023-10-19T13:46:15;100050.75;;;9.79;100.00
20455;BME280;10386;54.314;10.022;2023-10-19T13:48:42;100040.28;;;9.85;100.00
20455;BME280;10386;54.314;10.022;2023-10-19T13:51:09;100044.59;;;9.88;100.00